Time;durP1;ratioP1;P1;durP2;ratioP2;P2;SDS_P1;SDS_P2;PMS_P1;PMS_P2;Temp;Humidity;BMP_temperature;BMP_pressure;BME280_temperature;BME280_humidity;BME280_pressure;Samples;Min_cycle;Max_cycle;Signal;HPM_P1;HPM_P2
2023/11/06 00:02:18;;;;;;;2.00;0.50;;;;;;;12.02;100.00;97955.29;185572;1234;43447;-59
2023/11/06 00:06:20;;;;;;;1.80;0.60;;;;;;;12.05;100.00;97967.73;185780;1233;46037;-59
2023/11/06 00:10:23;;;;;;;0.80;0.80;;;;;;;12.04;100.00;97974.75;185649;1235;45932;-59
2023/11/06 00:14:40;;;;;;;1.70;0.50;;;;;;;12.07;100.00;97976.49;185751;1235;58794;-59
2023/11/06 00:18:46;;;;;;;2.40;0.30;;;;;;;12.08;100.00;97990.97;185622;1234;43749;-59
2023/11/06 00:23:08;;;;;;;0.30;0.30;;;;;;;12.08;100.00;98000.56;185724;1234;45955;-58
2023/11/06 00:27:10;;;;;;;0.50;0.40;;;;;;;12.09;100.00;98010.73;185728;1233;43768;-58
2023/11/06 00:31:12;;;;;;;1.30;0.40;;;;;;;12.11;100.00;98021.95;185589;1233;43872;-59
2023/11/06 00:35:16;;;;;;;5.80;1.10;;;;;;;12.13;100.00;98027.13;185617;1235;58289;-59
2023/11/06 00:39:18;;;;;;;2.00;0.70;;;;;;;12.15;100.00;98040.84;185582;1233;43753;-58
2023/11/06 00:43:46;;;;;;;2.30;1.10;;;;;;;12.18;100.00;98049.73;185601;1237;44666;-58
2023/11/06 00:47:50;;;;;;;2.30;1.20;;;;;;;12.21;100.00;98056.56;185770;1234;45998;-59
2023/11/06 00:51:53;;;;;;;1.70;0.80;;;;;;;12.19;100.00;98067.38;185659;1235;43571;-58
2023/11/06 00:55:55;;;;;;;1.00;0.80;;;;;;;12.16;99.54;98074.75;185641;1234;58575;-58
2023/11/06 00:59:57;;;;;;;1.50;0.70;;;;;;;12.12;99.22;98090.06;185631;1233;45970;-58
2023/11/06 01:03:59;;;;;;;3.10;0.80;;;;;;;12.14;99.05;98099.50;185728;1233;44972;-58
2023/11/06 01:08:05;;;;;;;0.80;0.40;;;;;;;12.09;99.87;98102.16;185610;1233;43729;-58
2023/11/06 01:12:07;;;;;;;2.30;0.80;;;;;;;12.08;100.00;98106.54;185345;1234;43564;-59
2023/11/06 01:16:09;;;;;;;0.90;0.60;;;;;;;12.05;100.00;98109.09;185588;1237;57096;-59
2023/11/06 01:20:11;;;;;;;0.50;0.40;;;;;;;12.00;100.00;98108.13;185564;1233;44853;-58
2023/11/06 01:24:13;;;;;;;2.60;0.90;;;;;;;11.97;100.00;98112.70;185323;1233;43456;-58
2023/11/06 01:28:15;;;;;;;1.10;0.50;;;;;;;11.92;99.28;98122.77;185469;1235;43830;-58
2023/11/06 01:32:20;;;;;;;1.40;0.70;;;;;;;11.84;97.87;98138.55;185480;1233;45283;-58
2023/11/06 01:36:22;;;;;;;1.00;0.40;;;;;;;11.84;96.51;98155.39;185536;1235;58683;-60
2023/11/06 01:40:24;;;;;;;0.70;0.70;;;;;;;11.82;96.43;98161.42;185551;1236;45898;-60
2023/11/06 01:44:26;;;;;;;1.80;1.00;;;;;;;11.86;96.78;98163.90;185765;1235;43413;-59
2023/11/06 01:48:29;;;;;;;2.50;0.50;;;;;;;11.83;95.06;98166.11;185750;1235;43655;-60
2023/11/06 01:52:33;;;;;;;0.80;0.40;;;;;;;11.80;93.83;98170.84;185477;1234;44930;-59
2023/11/06 01:56:38;;;;;;;0.50;0.20;;;;;;;11.78;92.69;98179.45;185594;1234;58377;-59
2023/11/06 02:01:08;;;;;;;1.20;0.40;;;;;;;11.72;90.41;98184.91;185613;1234;43573;-59
2023/11/06 02:05:12;;;;;;;1.80;0.90;;;;;;;11.71;88.59;98195.67;185650;1234;43604;-59
2023/11/06 02:09:43;;;;;;;2.60;0.80;;;;;;;11.73;88.60;98203.52;185840;1235;44426;-59
2023/11/06 02:13:46;;;;;;;13.00;1.50;;;;;;;11.73;88.38;98213.44;185802;1234;43854;-60
2023/11/06 02:17:56;;;;;;;5.80;0.60;;;;;;;11.71;87.24;98221.89;185739;1234;57129;-59
2023/11/06 02:21:58;;;;;;;2.70;0.50;;;;;;;11.67;85.76;98229.25;185774;1233;43485;-59
2023/11/06 02:26:06;;;;;;;1.00;0.50;;;;;;;11.64;85.78;98234.05;185594;1234;43561;-59
2023/11/06 02:30:09;;;;;;;2.20;0.90;;;;;;;11.57;85.72;98245.00;185641;1234;43958;-59
2023/11/06 02:34:22;;;;;;;2.90;0.80;;;;;;;11.52;85.54;98257.30;185655;1237;43487;-59
2023/11/06 02:38:28;;;;;;;1.50;0.50;;;;;;;11.49;85.16;98259.95;185529;1234;58419;-59
2023/11/06 02:42:30;;;;;;;1.20;0.50;;;;;;;11.46;85.02;98266.84;185683;1234;43523;-59
2023/11/06 02:46:32;;;;;;;0.50;0.50;;;;;;;11.41;85.64;98270.59;185673;1233;45826;-59
2023/11/06 02:50:34;;;;;;;1.50;0.40;;;;;;;11.35;85.28;98271.90;185630;1235;44928;-59
2023/11/06 02:54:35;;;;;;;1.30;0.90;;;;;;;11.33;85.81;98278.17;185327;1235;45971;-59
2023/11/06 02:58:41;;;;;;;2.90;0.50;;;;;;;11.32;85.59;98287.42;184886;1233;60175;-59
2023/11/06 03:02:44;;;;;;;0.40;0.30;;;;;;;11.39;85.85;98288.64;185466;1235;44979;-59
2023/11/06 03:06:46;;;;;;;0.60;0.60;;;;;;;11.38;85.85;98295.86;185626;1233;45894;-59
2023/11/06 03:11:03;;;;;;;2.60;0.40;;;;;;;11.34;85.52;98302.08;185362;1233;46043;-59
2023/11/06 03:15:10;;;;;;;0.90;0.20;;;;;;;11.26;85.53;98314.36;185588;1233;45918;-59
2023/11/06 03:19:23;;;;;;;1.40;0.50;;;;;;;11.23;85.62;98320.46;185774;1235;58307;-59
2023/11/06 03:23:25;;;;;;;2.40;0.60;;;;;;;11.15;85.53;98334.05;185439;1235;43574;-58
2023/11/06 03:27:30;;;;;;;1.10;0.50;;;;;;;11.18;86.19;98339.14;185702;1235;45833;-59
2023/11/06 03:31:34;;;;;;;3.80;0.70;;;;;;;11.18;86.31;98345.48;185671;1235;44416;-60
2023/11/06 03:35:36;;;;;;;2.50;0.70;;;;;;;11.15;86.52;98351.49;185769;1235;45979;-58
2023/11/06 03:39:40;;;;;;;1.10;0.40;;;;;;;11.12;86.99;98356.23;185529;1237;58239;-58
2023/11/06 03:43:42;;;;;;;0.80;0.40;;;;;;;11.10;87.21;98363.11;185754;1234;43675;-58
2023/11/06 03:47:46;;;;;;;0.70;0.30;;;;;;;11.09;87.14;98365.85;185819;1234;44335;-59
2023/11/06 03:51:48;;;;;;;0.30;0.30;;;;;;;11.09;87.30;98365.27;185598;1235;45873;-59
2023/11/06 03:55:50;;;;;;;1.00;0.50;;;;;;;11.10;87.21;98367.45;185760;1234;44861;-58
2023/11/06 03:59:52;;;;;;;1.00;0.70;;;;;;;11.12;87.56;98378.44;185557;1235;58289;-58
2023/11/06 04:03:59;;;;;;;2.20;1.00;;;;;;;11.14;87.69;98386.86;185721;1234;43795;-59
2023/11/06 04:08:04;;;;;;;0.30;0.20;;;;;;;11.12;87.05;98389.15;185898;1233;44214;-59
2023/11/06 04:12:16;;;;;;;1.30;0.60;;;;;;;11.16;87.42;98398.92;185784;1234;45155;-59
2023/11/06 04:16:20;;;;;;;1.50;0.50;;;;;;;11.19;87.20;98406.02;185707;1233;46077;-59
2023/11/06 04:20:22;;;;;;;0.70;0.50;;;;;;;11.18;87.88;98412.71;185576;1234;59880;-60
2023/11/06 04:24:24;;;;;;;4.30;0.60;;;;;;;11.14;87.82;98417.97;185667;1234;44742;-59
2023/11/06 04:28:28;;;;;;;1.20;0.30;;;;;;;11.16;87.87;98423.74;185740;1233;43517;-59
2023/11/06 04:32:29;;;;;;;0.60;0.40;;;;;;;11.17;88.24;98422.20;185631;1233;45940;-59
2023/11/06 04:36:31;;;;;;;1.30;0.50;;;;;;;11.19;88.25;98434.63;185765;1234;43757;-59
2023/11/06 04:40:33;;;;;;;1.40;0.50;;;;;;;11.17;88.21;98439.27;185624;1233;58473;-59
2023/11/06 04:44:38;;;;;;;3.00;0.80;;;;;;;11.15;88.69;98444.67;185662;1234;43519;-59
2023/11/06 04:48:41;;;;;;;0.40;0.40;;;;;;;11.12;88.49;98447.05;185712;1235;43575;-59
2023/11/06 04:52:52;;;;;;;2.90;1.20;;;;;;;11.14;88.18;98444.58;185637;1233;45881;-59
2023/11/06 04:56:54;;;;;;;0.90;0.80;;;;;;;11.15;88.30;98446.36;185701;1233;44408;-60
2023/11/06 05:01:50;;;;;;;0.50;0.20;;;;;;;11.14;88.58;98449.36;185784;1234;58074;-59
2023/11/06 05:05:52;;;;;;;1.50;0.40;;;;;;;11.16;88.56;98456.90;185596;1233;45556;-60
2023/11/06 05:09:54;;;;;;;0.90;0.40;;;;;;;11.17;88.64;98461.41;185741;1234;43920;-59
2023/11/06 05:13:56;;;;;;;2.50;0.50;;;;;;;11.21;88.12;98474.85;185750;1234;45834;-59
2023/11/06 05:17:59;;;;;;;1.00;0.90;;;;;;;11.20;88.06;98475.45;185727;1233;45974;-60
2023/11/06 05:22:02;;;;;;;6.00;0.80;;;;;;;11.24;88.01;98486.05;185679;1235;58827;-59
2023/11/06 05:26:08;;;;;;;1.90;0.90;;;;;;;11.31;88.41;98494.36;185665;1233;45859;-60
2023/11/06 05:30:17;;;;;;;2.50;1.00;;;;;;;11.34;88.09;98497.54;185535;1234;46359;-60
2023/11/06 05:34:19;;;;;;;1.20;0.90;;;;;;;11.38;88.78;98499.01;185681;1236;44894;-60
2023/11/06 05:38:23;;;;;;;3.20;0.90;;;;;;;11.41;88.18;98505.19;185652;1233;43675;-60
2023/11/06 05:42:25;;;;;;;0.90;0.60;;;;;;;11.44;87.51;98511.16;185664;1234;58299;-58
2023/11/06 05:46:28;;;;;;;2.40;0.90;;;;;;;11.43;87.55;98519.21;185658;1234;46087;-60
2023/11/06 05:50:31;;;;;;;0.60;0.40;;;;;;;11.36;87.27;98526.37;185694;1233;43604;-60
2023/11/06 05:54:35;;;;;;;2.70;0.80;;;;;;;11.35;86.95;98534.79;185561;1234;44829;-59
2023/11/06 05:58:37;;;;;;;3.50;1.30;;;;;;;11.37;87.08;98545.96;185781;1235;44591;-60
2023/11/06 06:02:39;;;;;;;3.80;0.90;;;;;;;11.36;87.25;98553.48;185738;1234;58195;-60
2023/11/06 06:06:43;;;;;;;2.80;0.80;;;;;;;11.33;87.58;98564.35;185661;1234;45289;-60
2023/11/06 06:10:48;;;;;;;1.20;0.90;;;;;;;11.30;87.92;98573.26;185681;1232;45867;-59
2023/11/06 06:14:51;;;;;;;4.00;0.50;;;;;;;11.26;87.98;98584.21;185569;1234;45979;-60
2023/11/06 06:18:53;;;;;;;1.20;0.70;;;;;;;11.25;88.65;98593.06;185644;1236;43733;-60
2023/11/06 06:39:39;;;;;;;1.90;0.80;;;;;;;11.54;87.59;98623.08;181142;1263;579150;-59
2023/11/06 06:44:33;;;;;;;1.20;0.80;;;;;;;11.63;87.18;98627.77;184340;1244;58316;-59
2023/11/06 06:48:35;;;;;;;1.20;0.20;;;;;;;11.60;87.52;98633.95;184282;1244;44423;-59
2023/11/06 06:52:40;;;;;;;1.20;0.50;;;;;;;11.61;87.69;98635.02;184206;1245;43428;-59
2023/11/06 06:56:46;;;;;;;1.00;0.50;;;;;;;11.68;88.41;98643.55;184205;1245;45934;-59
2023/11/06 07:00:49;;;;;;;2.80;0.60;;;;;;;11.72;88.07;98651.98;183992;1244;45947;-59
2023/11/06 07:04:51;;;;;;;2.60;0.90;;;;;;;11.78;87.63;98661.54;184143;1245;59783;-59
2023/11/06 07:08:56;;;;;;;2.60;0.50;;;;;;;11.82;87.76;98677.61;183973;1244;45387;-59
2023/11/06 07:13:00;;;;;;;5.30;0.90;;;;;;;11.84;87.90;98689.70;184185;1245;43699;-59
2023/11/06 07:17:54;;;;;;;1.70;1.10;;;;;;;11.91;88.28;98697.26;184070;1244;44151;-59
2023/11/06 07:21:56;;;;;;;1.00;0.60;;;;;;;12.11;88.06;98703.75;185235;1237;43418;-59
2023/11/06 07:26:17;;;;;;;0.90;0.50;;;;;;;12.27;87.70;98704.67;185173;1238;58378;-59
2023/11/06 07:30:20;;;;;;;0.80;0.40;;;;;;;12.35;85.88;98708.02;185173;1237;43704;-59
2023/11/06 07:34:22;;;;;;;0.80;0.40;;;;;;;12.40;85.89;98715.05;185134;1237;43464;-60
2023/11/06 07:38:25;;;;;;;2.90;1.00;;;;;;;12.48;86.19;98717.57;185184;1238;43630;-58
2023/11/06 07:42:27;;;;;;;1.50;0.30;;;;;;;12.60;86.35;98727.39;185197;1237;43574;-59
2023/11/06 07:46:29;;;;;;;0.90;0.60;;;;;;;12.69;86.21;98732.08;185040;1237;57945;-59
2023/11/06 07:50:34;;;;;;;1.70;1.00;;;;;;;12.78;84.91;98734.70;184935;1237;44847;-59
2023/11/06 07:54:43;;;;;;;0.30;0.20;;;;;;;12.85;84.05;98737.64;185045;1240;46023;-59
2023/11/06 07:58:49;;;;;;;1.30;0.50;;;;;;;12.95;83.61;98741.82;184809;1236;46086;-59
2023/11/06 08:02:51;;;;;;;3.30;0.80;;;;;;;13.08;84.14;98745.46;184894;1238;45876;-59
2023/11/06 08:06:53;;;;;;;2.00;1.10;;;;;;;13.13;82.80;98746.83;185037;1236;58436;-59
2023/11/06 08:10:55;;;;;;;1.10;0.40;;;;;;;13.26;83.45;98750.02;185070;1237;44885;-59
2023/11/06 08:14:57;;;;;;;4.40;0.60;;;;;;;13.34;82.96;98749.48;185061;1237;45291;-59
2023/11/06 08:18:59;;;;;;;0.70;0.60;;;;;;;13.39;82.73;98759.18;184882;1237;43531;-59
2023/11/06 08:23:02;;;;;;;0.80;0.60;;;;;;;13.41;82.28;98772.29;184867;1237;45923;-59
2023/11/06 08:27:05;;;;;;;0.50;0.20;;;;;;;13.44;82.81;98775.52;184768;1241;58615;-59
2023/11/06 08:31:20;;;;;;;1.40;0.90;;;;;;;13.47;83.35;98777.83;185118;1238;45909;-59
2023/11/06 08:35:22;;;;;;;1.00;0.60;;;;;;;13.56;83.37;98778.25;184994;1238;45846;-60
2023/11/06 08:39:24;;;;;;;4.30;0.80;;;;;;;13.66;82.64;98782.89;184973;1237;45916;-59
2023/11/06 08:43:26;;;;;;;1.60;0.60;;;;;;;13.74;82.36;98794.46;184960;1237;45842;-59
2023/11/06 08:47:28;;;;;;;2.60;0.80;;;;;;;13.81;82.57;98798.77;185095;1237;58701;-59
2023/11/06 08:51:31;;;;;;;2.50;0.90;;;;;;;13.91;82.55;98804.59;185011;1237;46062;-59
2023/11/06 08:55:34;;;;;;;3.70;0.80;;;;;;;14.09;82.03;98815.27;185148;1240;45852;-59
2023/11/06 08:59:36;;;;;;;0.50;0.40;;;;;;;14.29;82.92;98818.41;184943;1241;44921;-59
2023/11/06 09:03:39;;;;;;;1.10;0.70;;;;;;;14.39;80.58;98828.38;185052;1237;45929;-60
2023/11/06 09:07:43;;;;;;;3.00;1.30;;;;;;;14.46;80.10;98833.14;184987;1238;59482;-60
2023/11/06 09:11:45;;;;;;;2.30;0.60;;;;;;;14.55;80.51;98843.06;184933;1238;45021;-59
2023/11/06 09:15:49;;;;;;;1.10;1.00;;;;;;;14.64;81.99;98853.66;185108;1238;44123;-59
2023/11/06 09:20:01;;;;;;;1.00;0.30;;;;;;;14.60;79.70;98863.00;185092;1238;45076;-58
2023/11/06 09:24:09;;;;;;;1.40;0.60;;;;;;;14.61;78.89;98870.25;184891;1237;44904;-59
2023/11/06 09:28:11;;;;;;;1.90;0.40;;;;;;;14.64;77.84;98873.98;185015;1236;58346;-59
2023/11/06 09:32:16;;;;;;;1.60;0.60;;;;;;;14.64;77.22;98885.58;185109;1237;43856;-59
2023/11/06 09:36:20;;;;;;;0.20;0.20;;;;;;;14.64;77.19;98892.73;185093;1237;43682;-60
2023/11/06 09:40:24;;;;;;;6.00;0.70;;;;;;;14.58;76.34;98892.29;185061;1238;44939;-59
2023/11/06 09:44:28;;;;;;;3.20;0.80;;;;;;;14.61;77.52;98894.80;184873;1236;43516;-59
2023/11/06 09:48:31;;;;;;;1.00;0.30;;;;;;;14.66;76.95;98897.36;184933;1239;59758;-59
2023/11/06 09:52:33;;;;;;;2.20;0.40;;;;;;;14.73;78.20;98900.42;185101;1237;44316;-59
2023/11/06 09:57:02;;;;;;;2.00;1.20;;;;;;;14.84;77.56;98910.05;184842;1237;45572;-59
2023/11/06 10:01:08;;;;;;;1.30;0.30;;;;;;;14.85;77.33;98916.94;184952;1238;44538;-59
2023/11/06 10:05:17;;;;;;;0.50;0.30;;;;;;;14.74;75.09;98909.30;185091;1237;43653;-59
2023/11/06 10:09:24;;;;;;;2.10;0.90;;;;;;;14.64;75.61;98907.59;184887;1236;59733;-59
2023/11/06 10:13:53;;;;;;;1.50;0.90;;;;;;;14.63;76.26;98905.94;185586;1235;45972;-59
2023/11/06 10:18:11;;;;;;;2.30;0.90;;;;;;;14.68;76.90;98909.95;185456;1234;43566;-60
2023/11/06 10:22:14;;;;;;;1.00;0.90;;;;;;;14.67;76.22;98913.36;185326;1234;46055;-59
2023/11/06 10:26:17;;;;;;;2.00;0.40;;;;;;;14.83;77.27;98918.80;185508;1234;45003;-59
2023/11/06 10:30:19;;;;;;;0.60;0.30;;;;;;;15.00;77.14;98921.86;185478;1234;58404;-60
2023/11/06 10:34:25;;;;;;;2.40;0.50;;;;;;;14.97;76.21;98930.14;185743;1235;43850;-59
2023/11/06 10:38:33;;;;;;;1.30;0.70;;;;;;;15.00;78.43;98939.27;185499;1234;43459;-59
2023/11/06 10:42:36;;;;;;;1.70;0.20;;;;;;;15.12;79.21;98941.55;185294;1234;46067;-59
2023/11/06 10:46:38;;;;;;;0.20;0.20;;;;;;;15.16;78.52;98948.41;185426;1234;43806;-59
2023/11/06 10:50:45;;;;;;;0.40;0.30;;;;;;;14.98;75.66;98947.20;185361;1234;58206;-59
2023/11/06 10:54:51;;;;;;;0.70;0.20;;;;;;;14.93;77.70;98956.46;185402;1234;44740;-59
2023/11/06 10:59:01;;;;;;;2.70;0.50;;;;;;;14.79;77.45;98955.70;185464;1233;46002;-59
2023/11/06 11:03:04;;;;;;;5.60;1.10;;;;;;;14.70;78.03;98962.84;185266;1234;43594;-59
2023/11/06 11:07:09;;;;;;;1.00;0.40;;;;;;;14.64;78.52;98964.86;185485;1237;44590;-59
2023/11/06 11:11:13;;;;;;;2.80;0.60;;;;;;;14.67;79.67;98967.05;185471;1234;57634;-60
2023/11/06 11:15:33;;;;;;;0.60;0.30;;;;;;;14.67;79.07;98975.94;185250;1234;45939;-59
2023/11/06 11:19:36;;;;;;;1.00;0.50;;;;;;;14.64;78.98;98982.61;185337;1233;43730;-59
2023/11/06 11:23:49;;;;;;;1.40;0.30;;;;;;;14.66;80.65;98991.23;185360;1234;46059;-59
2023/11/06 11:28:13;;;;;;;1.60;1.10;;;;;;;14.71;80.48;98996.89;185472;1234;43852;-59
2023/11/06 11:32:15;;;;;;;0.40;0.30;;;;;;;14.73;80.09;99004.08;185287;1234;58350;-59
2023/11/06 11:36:27;;;;;;;0.20;0.10;;;;;;;14.64;77.28;99001.30;185361;1234;43729;-59
2023/11/06 11:40:41;;;;;;;2.20;0.30;;;;;;;14.59;77.49;99014.29;185561;1233;43520;-59
2023/11/06 11:44:57;;;;;;;5.10;0.50;;;;;;;14.52;78.76;99026.05;185486;1234;45863;-59
2023/11/06 11:49:40;;;;;;;1.30;0.60;;;;;;;14.49;78.75;99022.23;185519;1234;88500;-83
2023/11/06 11:53:42;;;;;;;4.90;0.50;;;;;;;14.50;79.13;99025.70;182849;1234;58673;-82
2023/11/06 11:57:45;;;;;;;0.40;0.40;;;;;;;14.45;79.19;99034.08;183316;1234;45941;-83
2023/11/06 12:06:17;;;;;;;0.20;0.10;;;;;;;14.10;79.60;99047.70;185836;1238;46091;-59
2023/11/06 12:10:28;;;;;;;1.90;0.30;;;;;;;14.05;82.17;99060.98;185330;1237;44608;-60
2023/11/06 12:14:37;;;;;;;0.60;0.20;;;;;;;14.05;83.73;99070.83;185067;1236;57532;-59
2023/11/06 12:18:43;;;;;;;2.50;0.70;;;;;;;14.12;85.32;99070.73;185251;1236;43925;-59
2023/11/06 12:22:51;;;;;;;0.50;0.10;;;;;;;14.28;83.48;99074.14;185009;1236;44665;-59
2023/11/06 12:26:53;;;;;;;1.10;0.70;;;;;;;14.41;84.44;99077.14;185141;1236;43572;-59
2023/11/06 12:30:55;;;;;;;1.30;0.40;;;;;;;14.54;85.38;99072.02;185123;1236;43602;-59
2023/11/06 12:35:19;;;;;;;1.20;0.30;;;;;;;14.53;82.28;99068.95;185271;1240;58321;-60
2023/11/06 12:39:26;;;;;;;0.80;0.30;;;;;;;14.52;82.96;99071.23;185374;1236;45861;-60
2023/11/06 12:43:31;;;;;;;0.80;0.60;;;;;;;14.76;85.23;99079.31;185080;1236;44976;-59
2023/11/06 12:47:34;;;;;;;3.30;0.60;;;;;;;14.82;83.29;99080.69;185122;1240;45823;-59
2023/11/06 12:51:36;;;;;;;1.10;0.40;;;;;;;14.69;81.94;99088.47;185077;1240;45866;-59
2023/11/06 12:55:41;;;;;;;0.30;0.20;;;;;;;14.65;82.82;99102.55;185376;1236;58538;-59
2023/11/06 12:59:44;;;;;;;2.90;0.40;;;;;;;14.50;82.30;99105.40;185253;1236;44661;-59
2023/11/06 13:04:12;;;;;;;1.00;0.50;;;;;;;14.35;82.36;99110.09;185291;1237;44744;-59
2023/11/06 13:08:21;;;;;;;3.00;0.80;;;;;;;14.30;85.04;99113.38;185272;1240;46027;-59
2023/11/06 13:12:25;;;;;;;2.00;0.70;;;;;;;14.18;84.40;99107.98;185407;1238;45941;-59
2023/11/06 13:16:55;;;;;;;0.90;0.50;;;;;;;14.17;85.19;99113.48;185324;1238;58246;-60
2023/11/06 13:21:05;;;;;;;2.80;0.80;;;;;;;14.13;84.81;99116.79;185085;1237;45151;-59
2023/11/06 13:25:13;;;;;;;0.80;0.70;;;;;;;14.07;86.50;99117.09;185045;1235;44676;-59
2023/11/06 13:29:19;;;;;;;1.00;0.50;;;;;;;14.03;86.31;99123.05;185245;1238;43690;-60
2023/11/06 13:33:23;;;;;;;2.70;0.70;;;;;;;13.99;85.94;99132.65;185202;1237;44911;-59
2023/11/06 13:37:25;;;;;;;1.20;0.50;;;;;;;14.01;85.53;99139.35;185056;1238;58432;-59
2023/11/06 13:41:27;;;;;;;1.60;0.50;;;;;;;13.99;85.52;99143.98;185089;1236;46053;-59
2023/11/06 13:45:31;;;;;;;3.10;0.70;;;;;;;13.94;85.20;99151.35;185202;1236;44676;-59
2023/11/06 13:49:33;;;;;;;2.00;1.00;;;;;;;13.89;84.50;99157.45;185261;1239;43765;-59
2023/11/06 13:53:46;;;;;;;1.60;1.10;;;;;;;13.87;84.70;99166.05;185309;1237;45978;-59
2023/11/06 13:57:56;;;;;;;3.20;1.10;;;;;;;13.83;84.39;99168.25;185214;1236;58566;-59
2023/11/06 14:02:06;;;;;;;0.90;0.70;;;;;;;13.81;83.85;99173.67;185356;1236;45905;-59
2023/11/06 14:06:31;;;;;;;;;;;;;;;;;;;;;
2023/11/06 14:10:34;;;;;;;1.10;0.70;;;;;;;13.80;86.47;99191.21;185371;1238;44693;-59
2023/11/06 14:14:37;;;;;;;2.30;0.90;;;;;;;13.79;87.62;99195.14;185098;1236;46022;-64
2023/11/06 14:18:39;;;;;;;2.20;0.80;;;;;;;13.74;86.27;99199.59;184934;1238;58439;-64
2023/11/06 14:22:45;;;;;;;1.40;0.60;;;;;;;13.63;84.68;99203.31;184794;1236;44871;-63
2023/11/06 14:26:47;;;;;;;;;;;;;;;13.49;85.20;99207.31;184914;1240;43872;-64
2023/11/06 14:30:50;;;;;;;5.30;0.60;;;;;;;13.40;85.70;99203.52;185058;1238;43366;-64
2023/11/06 14:34:52;;;;;;;2.10;0.80;;;;;;;13.34;86.84;99212.11;184697;1240;43767;-65
2023/11/06 14:38:54;;;;;;;1.40;0.50;;;;;;;13.31;87.31;99209.27;184902;1236;57412;-64
2023/11/06 14:42:56;;;;;;;3.30;1.50;;;;;;;13.29;87.55;99207.30;184904;1238;43646;-66
2023/11/06 14:46:59;;;;;;;3.30;1.10;;;;;;;13.21;87.46;99210.15;185053;1239;46043;-63
2023/11/06 14:51:04;;;;;;;0.90;0.50;;;;;;;13.15;87.20;99213.86;184930;1236;46549;-65
2023/11/06 14:55:12;;;;;;;0.90;0.60;;;;;;;13.06;87.81;99215.71;184827;1238;44903;-65
2023/11/06 14:59:15;;;;;;;1.80;1.00;;;;;;;12.90;88.37;99221.36;184989;1237;58745;-66
2023/11/06 15:03:17;;;;;;;2.30;1.00;;;;;;;12.78;88.28;99219.05;184668;1236;90607;-83
2023/11/06 15:07:20;;;;;;;5.20;1.20;;;;;;;12.73;88.25;99218.23;183124;1237;45746;-83
2023/11/06 15:11:31;;;;;;;2.90;1.50;;;;;;;12.67;88.16;99220.02;183057;1237;45879;-82
2023/11/06 15:15:45;;;;;;;6.30;1.90;;;;;;;12.61;88.45;99219.33;185176;1234;90789;-66
2023/11/06 15:19:48;;;;;;;2.40;1.40;;;;;;;12.54;87.83;99225.17;184866;1236;57530;-66
2023/11/06 15:23:52;;;;;;;2.20;1.50;;;;;;;12.47;87.71;99229.88;184577;1239;45117;-66
2023/11/06 15:27:56;;;;;;;4.50;2.40;;;;;;;12.37;88.05;99239.76;184628;1237;46012;-66
2023/11/06 15:32:00;;;;;;;4.80;1.50;;;;;;;12.24;89.08;99244.35;184700;1236;43693;-65
2023/11/06 15:36:04;;;;;;;4.90;2.60;;;;;;;12.08;90.31;99251.90;184475;1236;45964;-65
2023/11/06 15:40:15;;;;;;;8.50;3.10;;;;;;;11.96;91.31;99265.00;184560;1237;57003;-65
2023/11/06 15:44:22;;;;;;;3.20;2.10;;;;;;;11.81;92.57;99271.52;184651;1236;44857;-65
2023/11/06 15:48:30;;;;;;;4.40;2.40;;;;;;;11.72;92.49;99281.52;184659;1240;46053;-65
2023/11/06 15:52:35;;;;;;;4.60;2.80;;;;;;;11.64;92.79;99288.30;184705;1236;45935;-65
2023/11/06 15:56:44;;;;;;;4.20;3.10;;;;;;;11.59;93.05;99292.20;184650;1240;44896;-64
2023/11/06 16:00:50;;;;;;;3.90;3.20;;;;;;;11.52;93.08;99293.82;184659;1236;58568;-65
2023/11/06 16:04:54;;;;;;;7.60;3.80;;;;;;;11.46;93.11;99299.16;184599;1236;45873;-66
2023/11/06 16:09:01;;;;;;;6.40;3.80;;;;;;;11.38;93.28;99306.92;184723;1236;45919;-65
2023/11/06 16:13:05;;;;;;;5.70;2.50;;;;;;;11.30;93.34;99310.36;183796;1240;45833;-64
2023/11/06 16:17:10;;;;;;;4.60;3.10;;;;;;;11.22;93.72;99314.52;184229;1240;45862;-64
2023/11/06 16:21:39;;;;;;;4.90;2.30;;;;;;;11.21;93.62;99318.60;184510;1236;58633;-64
2023/11/06 16:25:41;;;;;;;3.40;2.30;;;;;;;11.25;93.13;99325.45;184876;1236;43533;-64
2023/11/06 16:29:47;;;;;;;4.30;3.00;;;;;;;11.23;92.91;99327.23;184730;1236;45126;-65
2023/11/06 16:33:49;;;;;;;;;;;;;;;11.22;92.89;99332.48;184662;1236;45931;-64
2023/11/06 16:37:55;;;;;;;7.40;3.40;;;;;;;11.20;92.66;99339.30;184742;1236;45633;-65
2023/11/06 16:41:57;;;;;;;6.30;4.20;;;;;;;11.13;92.93;99343.97;184636;1236;58411;-64
2023/11/06 16:45:59;;;;;;;8.00;3.70;;;;;;;11.12;92.82;99351.96;184645;1236;46153;-64
2023/11/06 16:50:05;;;;;;;7.50;3.10;;;;;;;11.08;92.73;99359.95;184517;1236;43729;-64
2023/11/06 16:54:10;;;;;;;7.60;4.00;;;;;;;11.02;93.16;99363.92;184829;1236;45724;-64
2023/11/06 17:02:38;;;;;;;6.20;3.70;;;;;;;10.84;93.24;99381.14;185644;1235;58365;-65
2023/11/06 17:06:46;;;;;;;9.30;6.40;;;;;;;10.75;93.33;99385.69;184904;1235;43786;-65
2023/11/06 17:10:49;;;;;;;21.50;12.60;;;;;;;10.61;94.05;99390.20;184766;1236;45066;-65
2023/11/06 17:14:52;;;;;;;16.20;9.80;;;;;;;10.51;94.25;99393.09;184662;1237;45275;-65
2023/11/06 17:18:54;;;;;;;23.70;12.10;;;;;;;10.42;95.28;99399.12;184706;1237;45916;-64
2023/11/06 17:22:59;;;;;;;21.80;11.20;;;;;;;10.36;95.46;99398.55;184786;1235;58263;-65
2023/11/06 17:27:01;;;;;;;16.10;10.80;;;;;;;10.31;95.56;99400.95;184853;1235;44502;-65
2023/11/06 17:31:04;;;;;;;10.90;6.90;;;;;;;10.30;95.57;99406.36;184806;1235;46072;-66
2023/11/06 17:35:08;;;;;;;13.70;8.40;;;;;;;10.33;95.22;99408.77;184842;1235;43981;-65
2023/11/06 17:39:19;;;;;;;12.60;8.10;;;;;;;10.32;95.36;99408.86;184857;1235;44658;-66
2023/11/06 17:43:22;;;;;;;19.40;9.50;;;;;;;10.27;95.65;99415.52;184891;1235;58266;-66
2023/11/06 17:47:24;;;;;;;16.90;9.10;;;;;;;10.24;95.52;99414.82;184754;1236;44753;-65
2023/11/06 17:51:26;;;;;;;16.30;10.00;;;;;;;10.16;96.38;99418.19;184850;1237;45048;-66
2023/11/06 17:55:29;;;;;;;17.90;9.10;;;;;;;10.13;96.25;99422.34;184826;1235;43791;-65
2023/11/06 17:59:31;;;;;;;15.50;8.60;;;;;;;10.12;96.38;99427.23;184549;1235;45027;-66
2023/11/06 18:03:38;;;;;;;12.00;8.00;;;;;;;10.11;96.46;99425.69;184693;1235;58098;-65
2023/11/06 18:13:48;;;;;;;9.70;6.50;;;;;;;10.01;96.35;99432.09;175147;1289;567986;-82
2023/11/06 18:17:52;;;;;;;9.90;6.10;;;;;;;9.94;96.13;99433.31;178410;1264;59620;-82
2023/11/06 18:21:55;;;;;;;13.10;7.50;;;;;;;9.91;96.01;99434.80;178724;1264;44742;-79
2023/11/06 18:25:58;;;;;;;19.90;8.30;;;;;;;9.91;96.02;99437.67;179318;1262;259169;-81
2023/11/06 18:30:03;;;;;;;7.30;5.20;;;;;;;9.91;95.75;99436.62;180000;1263;44058;-83
2023/11/06 18:34:06;;;;;;;14.10;5.50;;;;;;;9.89;95.24;99433.91;179082;1262;46018;-82
2023/11/06 18:38:10;;;;;;;16.40;7.70;;;;;;;9.89;95.22;99435.13;180079;1263;58256;-82
2023/11/06 18:42:13;;;;;;;18.90;9.80;;;;;;;9.86;95.15;99431.73;178939;1262;44512;-80
2023/11/06 18:46:16;;;;;;;14.00;8.20;;;;;;;9.82;95.07;99433.63;179231;1263;45865;-81
2023/11/06 18:50:19;;;;;;;20.00;8.60;;;;;;;9.77;94.81;99432.22;179412;1262;43978;-81
2023/11/06 18:54:22;;;;;;;12.20;7.00;;;;;;;9.68;95.09;99432.25;178196;1263;45983;-81
2023/11/06 18:58:25;;;;;;;17.10;7.90;;;;;;;9.66;94.88;99434.60;179702;1263;59389;-81
2023/11/06 19:02:29;;;;;;;12.20;7.10;;;;;;;9.65;94.92;99434.34;179090;1266;46305;-82
2023/11/06 19:06:32;;;;;;;10.80;7.20;;;;;;;9.60;95.37;99440.05;180232;1261;43949;-81
2023/11/06 19:10:37;;;;;;;10.50;6.70;;;;;;;9.58;95.95;99447.18;178645;1257;45992;-80
2023/11/06 19:14:41;;;;;;;10.60;5.30;;;;;;;9.56;96.44;99446.77;180135;1257;44230;-80
2023/11/06 19:18:46;;;;;;;9.40;6.40;;;;;;;9.59;96.48;99453.83;180776;1257;58411;-81
2023/11/06 19:22:51;;;;;;;12.80;6.30;;;;;;;9.61;96.19;99462.88;179339;1257;44548;-79
2023/11/06 19:26:55;;;;;;;10.00;6.10;;;;;;;9.61;95.87;99468.67;180161;1256;46083;-80
2023/11/06 19:30:59;;;;;;;17.80;9.00;;;;;;;9.58;95.79;99472.45;179943;1256;45805;-81
2023/11/06 19:35:03;;;;;;;12.20;7.60;;;;;;;9.55;95.89;99477.70;181080;1256;44111;-81
2023/11/06 19:39:10;;;;;;;14.50;7.10;;;;;;;9.52;96.10;99480.08;180685;1257;58227;-81